Lake Charles Regional Airport
KLCH : rendu visible

Aérodrome :











RETROUVEZ-NOUS SUR...

 
LOGIN :

S'inscrire | Disclaimer

   EN    FR    IT 

 









Légende :    VFR   VFR Marginal   IFR   IFR Intensif   IFR Très Intensif
Visi : 
Plafond : 
>= 8 km
>= 3000ft
5 à 8 km
1000 à 3000 ft
1500m à 5 km
500 à 1000 ft
800 à 1500m
200 à 500 ft
< 800m
< 200 ft
Symboles :   Orages  Brouillard  Fortes neiges  Fortes précipitations  Vent > 20 kt






- Altitude de l'aérodrome : 15 ft
- Code IATA : LCH


KLCH - Lake Charles Regional

DERNIER METAR :
  • 201553Z 14012KT 10SM CLR 23/15 A3013 RMK AO2 SLP210 T02280150

METARs EXPIRÉS :
  • 201453Z 14009KT 10SM CLR 19/14 A3012 RMK AO2 SLP206 T01940144 51016

TAF KLCH
Valide du 20 à 13h jusqu'au 21 à 12h UTC


201304Z 2013/2112 00000KT 6SM BR SKC
TEMPO 2013/2015 3SM BR
FM201500 12008KT P6SM SCT025
FM201800 15014G22KT P6SM BKN035
FM210000 13010KT P6SM FEW030 BKN250



MET'MAP, la Météo Aéronautique d'un coup d'oeil ! - Copyright ORBIFLY Décembre 2007 - Disclaimer

ORBIFLY MET'MAP TEAM :

Programmation & Développement : Alexandra Zaïnal
Conception & Développement : Baudouin d'Aumeries
Co-Programmation & Développement : Marc-Olivier Méhu
Soutien technique & logistique : Manuel Goepfert

Contact : metmap@orbifly.com




SOURCES & CREDITS :

   NOAA       Earth
Advisory